• Join FlightAware (Why Join?)
  • Login
  • US Flag 
05:36AM EDT


 

Airport Tracker/Info


-or-


 

Live Flight TrackerFlight Track Log ✈ UCA597 ✈ 07-Nov-2013 ✈ KIAD - KBGM

Flight Track Log - Related Links

Times and Time Zones

All times are in EST time to prevent confusion due to time zone crossing. See the UCA597 flight status page for this flight to view local times or setup timezone preferences in your user account.

Time Position Orientation Groundspeed Altitude Reporting Facility
EST Latitude Longitude Course Direction KTS MPH feet Rate Location/Type
05:41PM 39.0000 -77.4333 North 149 171 3,100  Level Potomac TRACON
05:42PM 39.0333 -77.4333 360° North 165 190 4,500 1,560 Climbing Potomac TRACON
05:43PM 39.0833 -77.4167 15° North 180 207 6,300 1,800 Climbing Potomac TRACON
05:44PM 39.1333 -77.4000 14° North 198 228 8,200 1,620 Climbing Potomac TRACON
05:45PM 39.1833 -77.3667 27° Northeast 218 251 9,600 1,260 Climbing Potomac TRACON
05:46PM 39.2333 -77.3500 14° North 221 254 10,600 960 Climbing Potomac TRACON
05:47PM 39.4053 -77.2611 North  Level Estimated
05:47PM 39.3000 -77.3167 21° North 240 276 11,500  Level Potomac TRACON
05:48PM 39.3500 -77.3333 346° North 208 239 13,000 1,320 Climbing Potomac TRACON
05:49PM 39.4167 -77.3667 339° North 221 254 14,200 1,260 Climbing Potomac TRACON
05:50PM 39.4833 -77.3833 349° North 215 247 15,600 900 Climbing Potomac TRACON
05:51PM 39.5333 -77.4167 333° Northwest 226 260 16,000 120 Climbing Potomac TRACON
05:53PM 39.6203 -77.4478 345° North 261 300 16,000 180 Level Washington Center
05:54PM 39.7197 -77.4539 357° North 280 322 16,500 420 Climbing New York Center
05:55PM 39.8097 -77.4492 North 288 331 17,100 900 Climbing New York Center
05:56PM 39.8869 -77.4483 360° North 288 331 18,400 960 Climbing New York Center
05:57PM 39.9597 -77.4147 19° North 274 315 19,000 300 Climbing New York Center
05:58PM 40.0372 -77.3706 24° Northeast 296 341 19,000  Level New York Center
05:59PM 40.1192 -77.3239 24° Northeast 311 358 19,000  Level New York Center
06:00PM 40.2031 -77.2775 23° Northeast 316 364 19,000  Level New York Center
06:01PM 40.2828 -77.2306 24° Northeast 316 364 19,000  Level New York Center
06:02PM 40.3664 -77.1867 22° Northeast 316 364 19,000  Level New York Center
06:03PM 40.4481 -77.1394 24° Northeast 316 364 19,000  Level New York Center
06:04PM 40.5342 -77.0903 23° Northeast 323 372 19,000  Level New York Center
06:05PM 40.6158 -77.0431 24° Northeast 318 366 19,000 -360 Level New York Center
06:06PM 40.7019 -76.9933 24° Northeast 318 366 18,400 -720 Descending New York Center
06:07PM 40.7836 -76.9486 23° Northeast 318 366 17,600 -720 Descending New York Center
06:08PM 40.8631 -76.9008 24° Northeast 318 366 17,000 -300 Descending New York Center
06:09PM 40.9425 -76.8558 23° Northeast 312 359 17,000  Level New York Center
06:10PM 41.0197 -76.8106 24° Northeast 302 348 17,000  Level New York Center
06:11PM 41.0972 -76.7650 24° Northeast 302 348 17,000  Level New York Center
06:12PM 41.1744 -76.7222 23° Northeast 302 348 17,000  Level New York Center
06:13PM 41.2386 -76.6867 23° Northeast 302 348 17,000  Level New York Center
06:14PM 41.3333 -76.6258 26° Northeast 307 353 17,000  Level New York Center
06:15PM 41.4103 -76.5828 23° Northeast 307 353 17,000  Level New York Center
06:16PM 41.4878 -76.5339 25° Northeast 307 353 17,000 -780 Level New York Center
06:17PM 41.5606 -76.4958 21° North 307 353 15,500 -1,560 Descending New York Center
06:18PM 41.6378 -76.4469 25° Northeast 307 353 13,900 -1,800 Descending New York Center
06:19PM 41.7175 -76.3900 28° Northeast 302 348 12,000 -1,860 Descending New York Center
06:20PM 41.7889 -76.3319 31° Northeast 302 348 10,300 -1,680 Descending New York Center
06:21PM 41.8561 -76.2761 32° Northeast 296 341 8,700 -1,680 Descending New York Center
06:22PM 41.9103 -76.2306 32° Northeast 267 307 7,000 -1,680 Descending New York Center
06:23PM 41.9686 -76.1825 31° Northeast 255 293 5,400 -1,560 Descending New York Center
06:24PM 42.0294 -76.1314 32° Northeast 237 273 4,000 -720 Descending New York Center
06:25PM 42.0572 -76.0667 60° Northeast 221 254 4,000 4,500 Level New York Center
06:26PM 42.0853 -75.9964 62° Northeast 216 249 13,000 -240 Climbing New York Center
06:27PM 42.1106 -75.9397 59° Northeast 195 224 3,600 -4,920 Descending New York Center
06:28PM 42.1406 -75.9253 20° North 130 150 3,100 -600 Descending New York Center
06:29PM 42.1625 -75.9436 328° Northwest 89 102 2,500 -540 Descending New York Center
06:30PM 42.1867 -75.9622 330° Northwest 84 97 2,100 5,220 Descending New York Center
06:31PM 42.2136 -75.9672 352° North 84 97 13,000 10,860 Climbing New York Center
06:33PM 42.2084 -75.9796 240° Southwest  Level Estimated
06:40PM 42.2084 -75.9796 North  Level Estimated
06:41PM 42.2084 -75.9796 North  Level Estimated